Time;durP1;ratioP1;P1;durP2;ratioP2;P2;SDS_P1;SDS_P2;PMS_P1;PMS_P2;Temp;Humidity;BMP_temperature;BMP_pressure;BME280_temperature;BME280_humidity;BME280_pressure;Samples;Min_cycle;Max_cycle;Signal;HPM_P1;HPM_P2
2022/07/19 00:01:48;;;;;;;6.40;2.90;;;20.90;99.90;;;;;;5027014;28;20196;-75
2022/07/19 00:04:14;;;;;;;3.72;2.70;;;;;;;;;;5033168;28;20495;-74
2022/07/19 00:06:40;;;;;;;7.53;3.03;;;;;;;;;;5031351;28;20381;-74
2022/07/19 00:09:06;;;;;;;6.10;2.75;;;;;;;;;;5018321;28;20040;-74
2022/07/19 00:11:32;;;;;;;8.35;3.08;;;;;;;;;;5020902;28;20038;-74
2022/07/19 00:13:58;;;;;;;5.32;2.70;;;;;;;;;;5030676;28;20067;-75
2022/07/19 00:16:24;;;;;;;5.38;2.80;;;;;;;;;;5031995;28;20489;-74
2022/07/19 00:18:50;;;;;;;8.10;2.95;;;;;;;;;;5024432;28;20394;-74
2022/07/19 00:21:16;;;;;;;5.60;3.00;;;20.70;99.90;;;;;;5026588;28;20038;-74
2022/07/19 00:23:42;;;;;;;5.80;2.67;;;;;;;;;;5031817;28;20041;-74
2022/07/19 00:26:08;;;;;;;5.35;2.72;;;;;;;;;;5029215;28;20457;-77
2022/07/19 00:28:34;;;;;;;5.22;2.75;;;;;;;;;;5017949;28;20140;-74
2022/07/19 00:31:00;;;;;;;5.07;2.72;;;;;;;;;;5007828;28;20172;-75
2022/07/19 00:33:26;;;;;;;5.55;2.60;;;;;;;;;;5006176;28;20037;-74
2022/07/19 00:35:52;;;;;;;3.88;2.80;;;;;;;;;;5006470;28;20120;-75
2022/07/19 00:38:18;;;;;;;5.47;2.50;;;;;;;;;;5005822;28;20078;-74
2022/07/19 00:40:44;;;;;;;4.85;3.15;;;;;;;;;;5008396;28;20034;-75
2022/07/19 00:43:11;;;;;;;4.97;2.83;;;;;;;;;;5004247;28;20140;-76
2022/07/19 00:45:37;;;;;;;6.35;2.80;;;;;;;;;;5008180;28;20414;-74
2022/07/19 00:48:04;;;;;;;4.53;2.95;;;20.20;99.90;;;;;;5008286;28;20451;-75
2022/07/19 00:50:30;;;;;;;13.15;8.70;;;;;;;;;;5009500;28;20022;-82
2022/07/19 00:53:00;;;;;;;15.93;10.82;;;;;;;;;;5009403;28;20061;-74
2022/07/19 00:55:27;;;;;;;7.10;3.95;;;;;;;;;;5005464;28;20374;-81
2022/07/19 00:57:55;;;;;;;8.48;4.03;;;;;;;;;;5011167;28;20500;-76
2022/07/19 01:00:21;;;;;;;3.50;2.65;;;;;;;;;;5009637;28;20082;-76
2022/07/19 01:02:48;;;;;;;5.70;3.15;;;;;;;;;;5008235;28;20030;-74
2022/07/19 01:05:14;;;;;;;6.80;2.88;;;;;;;;;;5006896;28;20478;-74
2022/07/19 01:07:42;;;;;;;5.60;3.85;;;;;;;;;;4999760;28;20084;-76
2022/07/19 01:10:10;;;;;;;5.55;2.55;;;;;;;;;;4984823;28;20050;-74
2022/07/19 01:12:37;;;;;;;3.42;2.58;;;;;;;;;;5009841;28;20022;-74
2022/07/19 01:15:16;;;;;;;7.53;2.65;;;20.00;99.90;;;;;;5011972;28;20489;-74
2022/07/19 01:17:42;;;;;;;6.22;2.80;;;;;;;;;;5000982;28;20045;-77
2022/07/19 01:20:08;;;;;;;6.78;2.97;;;;;;;;;;5011022;28;20647;-75
2022/07/19 01:22:34;;;;;;;6.25;2.88;;;;;;;;;;5008909;28;20122;-75
2022/07/19 01:25:00;;;;;;;6.88;2.85;;;;;;;;;;4995225;28;20110;-74
2022/07/19 01:27:26;;;;;;;7.03;3.20;;;;;;;;;;5013680;28;20184;-74
2022/07/19 01:29:52;;;;;;;6.38;2.90;;;;;;;;;;5032825;28;20041;-75
2022/07/19 01:32:18;;;;;;;4.40;2.75;;;;;;;;;;5030885;28;20381;-75
2022/07/19 01:34:44;;;;;;;3.47;2.90;;;;;;;;;;5032145;28;20112;-75
2022/07/19 01:37:10;;;;;;;4.70;2.80;;;;;;;;;;5031346;28;20404;-74
2022/07/19 01:39:36;;;;;;;6.28;3.17;;;;;;;;;;5032137;28;20022;-74
2022/07/19 01:42:02;;;;;;;6.13;2.95;;;;;;;;;;5033699;28;20056;-78
2022/07/19 01:44:28;;;;;;;8.73;2.85;;;;;;;;;;5032962;28;20091;-74
2022/07/19 01:46:54;;;;;;;7.35;3.25;;;;;;;;;;5029955;28;20034;-74
2022/07/19 01:49:20;;;;;;;6.75;3.38;;;;;;;;;;5038568;28;20041;-74
2022/07/19 01:51:47;;;;;;;6.45;2.88;;;;;;;;;;5030772;28;20037;-78
2022/07/19 01:54:13;;;;;;;4.35;3.20;;;;;;;;;;5032709;28;20117;-77
2022/07/19 01:56:43;;;;;;;6.93;4.05;;;19.40;99.90;;;;;;5031729;28;20750;-75
2022/07/19 01:59:08;;;;;;;4.43;3.20;;;19.50;99.90;;;;;;5026432;28;20033;-75
2022/07/19 02:01:34;;;;;;;5.80;3.00;;;;;;;;;;5019412;28;20393;-78
2022/07/19 02:04:00;;;;;;;6.43;3.30;;;;;;;;;;5017143;28;20041;-74
2022/07/19 02:06:26;;;;;;;5.68;3.45;;;;;;;;;;5014779;28;20108;-74
2022/07/19 02:08:52;;;;;;;5.43;3.00;;;;;;;;;;5028340;28;20029;-74
2022/07/19 02:11:36;;;;;;;7.65;3.42;;;19.20;99.90;;;;;;5021732;28;20106;-74
2022/07/19 02:14:06;;;;;;;5.00;3.17;;;;;;;;;;5030818;28;20022;-74
2022/07/19 02:16:31;;;;;;;6.13;3.33;;;19.30;99.90;;;;;;5033757;28;20389;-74
2022/07/19 02:18:57;;;;;;;3.60;2.90;;;;;;;;;;5032366;28;20038;-74
2022/07/19 02:21:23;;;;;;;5.07;3.00;;;;;;;;;;5031869;28;20025;-74
2022/07/19 02:23:49;;;;;;;14.38;3.58;;;19.40;99.90;;;;;;5007949;28;20552;-75
2022/07/19 02:26:15;;;;;;;6.45;3.60;;;;;;;;;;5019367;28;20037;-75
2022/07/19 02:28:41;;;;;;;3.55;3.22;;;;;;;;;;5025994;28;20050;-75
2022/07/19 02:31:07;;;;;;;5.10;3.38;;;;;;;;;;5031050;28;20119;-74
2022/07/19 02:33:33;;;;;;;4.25;3.13;;;;;;;;;;5030108;28;20029;-77
2022/07/19 02:35:59;;;;;;;7.15;3.20;;;;;;;;;;5030465;28;20044;-75
2022/07/19 02:38:25;;;;;;;6.03;3.47;;;;;;;;;;5028890;28;20053;-75
2022/07/19 02:40:51;;;;;;;5.53;3.38;;;;;;;;;;5028847;28;20045;-75
2022/07/19 02:43:17;;;;;;;7.38;3.97;;;;;;;;;;5032474;28;20104;-74
2022/07/19 02:45:43;;;;;;;5.72;3.42;;;;;;;;;;5024743;28;20466;-75
2022/07/19 02:48:09;;;;;;;6.07;3.53;;;;;;;;;;5023591;28;20044;-74
2022/07/19 02:50:35;;;;;;;6.13;3.38;;;19.50;99.90;;;;;;5000358;28;20041;-76
2022/07/19 02:53:02;;;;;;;9.10;4.00;;;;;;;;;;5013229;28;20041;-75
2022/07/19 02:55:28;;;;;;;6.75;3.83;;;;;;;;;;5035061;28;20107;-75
2022/07/19 02:57:54;;;;;;;9.27;3.83;;;;;;;;;;5042323;28;20089;-75
2022/07/19 03:00:20;;;;;;;6.78;4.13;;;;;;;;;;5031434;28;20079;-75
2022/07/19 03:02:46;;;;;;;5.70;3.60;;;;;;;;;;5030457;28;20355;-75
2022/07/19 03:05:12;;;;;;;6.97;3.47;;;;;;;;;;5032096;28;20032;-75
2022/07/19 03:07:38;;;;;;;7.30;3.83;;;;;;;;;;5025504;28;20061;-75
2022/07/19 03:10:05;;;;;;;10.35;3.63;;;19.20;99.90;;;;;;5031899;28;20132;-74
2022/07/19 03:12:31;;;;;;;6.35;3.83;;;;;;;;;;5031013;28;20064;-74
2022/07/19 03:14:57;;;;;;;6.30;3.35;;;19.50;99.90;;;;;;5022847;28;20026;-74
2022/07/19 03:17:23;;;;;;;9.07;3.53;;;;;;;;;;5011706;28;20494;-75
2022/07/19 03:19:49;;;;;;;9.10;3.45;;;;;;;;;;5012572;28;20182;-76
2022/07/19 03:22:15;;;;;;;7.10;3.17;;;;;;;;;;5021489;28;20041;-75
2022/07/19 03:24:42;;;;;;;7.55;3.63;;;19.50;99.90;;;;;;5021874;28;20026;-74
2022/07/19 03:27:09;;;;;;;5.38;3.33;;;;;;;;;;5030207;28;20046;-75
2022/07/19 03:29:34;;;;;;;8.15;3.20;;;;;;;;;;5011973;28;20057;-75
2022/07/19 03:32:00;;;;;;;11.60;3.95;;;;;;;;;;5026377;28;20038;-75
2022/07/19 03:34:28;;;;;;;6.13;3.22;;;;;;;;;;5028715;28;20057;-74
2022/07/19 03:36:56;;;;;;;6.07;3.70;;;;;;;;;;5023664;28;20041;-74
2022/07/19 03:39:22;;;;;;;8.13;4.13;;;;;;;;;;5033003;28;20510;-74
2022/07/19 03:41:48;;;;;;;5.82;3.92;;;;;;;;;;5018917;28;20033;-74
2022/07/19 03:44:14;;;;;;;9.02;3.90;;;;;;;;;;5036394;28;20041;-74
2022/07/19 03:46:40;;;;;;;6.80;3.97;;;;;;;;;;5035617;28;20440;-74
2022/07/19 03:49:06;;;;;;;7.85;4.00;;;;;;;;;;5032331;28;20056;-74
2022/07/19 03:51:32;;;;;;;8.15;3.65;;;;;;;;;;5029776;28;20038;-75
2022/07/19 03:53:58;;;;;;;4.40;3.65;;;;;;;;;;5026400;28;20037;-76
2022/07/19 03:56:24;;;;;;;5.93;3.65;;;;;;;;;;5034151;28;20060;-75
2022/07/19 03:58:50;;;;;;;11.90;3.50;;;;;;;;;;5028661;28;20040;-75
2022/07/19 04:01:16;;;;;;;10.30;4.32;;;;;;;;;;5020417;28;20079;-74
2022/07/19 04:03:42;;;;;;;6.97;3.40;;;19.50;99.90;;;;;;5026049;28;20021;-75
2022/07/19 04:06:08;;;;;;;7.13;3.63;;;;;;;;;;5027961;28;20106;-74
2022/07/19 04:08:34;;;;;;;9.40;3.65;;;;;;;;;;5031544;28;20033;-74
2022/07/19 04:11:01;;;;;;;4.85;3.35;;;;;;;;;;5024992;28;20048;-75
2022/07/19 04:13:27;;;;;;;6.63;3.30;;;;;;;;;;5020033;28;20504;-74
2022/07/19 04:15:53;;;;;;;13.55;3.92;;;;;;;;;;5026881;28;20492;-74
2022/07/19 04:18:19;;;;;;;8.80;3.53;;;;;;;;;;5022725;28;20030;-74
2022/07/19 04:20:45;;;;;;;8.40;3.83;;;;;;;;;;5051548;28;20097;-74
2022/07/19 04:23:14;;;;;;;8.55;3.60;;;;;;;;;;5022919;28;20041;-74
2022/07/19 04:25:40;;;;;;;10.48;3.72;;;19.70;99.90;;;;;;5022800;28;20025;-75
2022/07/19 04:28:07;;;;;;;9.00;3.90;;;;;;;;;;5028262;28;20505;-74
2022/07/19 04:30:33;;;;;;;10.43;3.60;;;;;;;;;;5029275;28;20021;-74
2022/07/19 04:32:59;;;;;;;5.95;3.78;;;;;;;;;;5030478;28;20477;-74
2022/07/19 04:35:25;;;;;;;9.60;3.45;;;;;;;;;;5029257;28;20029;-74
2022/07/19 04:37:51;;;;;;;5.53;3.50;;;;;;;;;;5020025;28;20046;-75
2022/07/19 04:40:17;;;;;;;6.25;3.47;;;;;;;;;;5020823;28;20049;-74
2022/07/19 04:42:43;;;;;;;9.60;3.60;;;;;;;;;;5027559;28;20035;-74
2022/07/19 04:45:09;;;;;;;7.30;3.75;;;;;;;;;;5003317;28;20032;-75
2022/07/19 04:47:35;;;;;;;7.65;3.78;;;;;;;;;;5012809;28;20045;-75
2022/07/19 04:50:01;;;;;;;5.43;3.60;;;;;;;;;;5027493;28;20496;-76
2022/07/19 04:52:27;;;;;;;9.18;3.30;;;;;;;;;;5021394;28;20026;-75
2022/07/19 04:54:53;;;;;;;5.18;3.55;;;;;;;;;;5026370;28;20125;-74
2022/07/19 04:57:19;;;;;;;6.43;3.15;;;;;;;;;;5018475;28;20058;-76
2022/07/19 04:59:45;;;;;;;8.30;3.40;;;;;;;;;;5015546;28;20100;-75
2022/07/19 05:02:11;;;;;;;9.48;3.20;;;;;;;;;;5005720;28;23999;-76
2022/07/19 05:04:37;;;;;;;7.93;3.45;;;;;;;;;;5025288;28;20114;-76
2022/07/19 05:07:03;;;;;;;4.97;2.75;;;;;;;;;;5008471;28;20541;-72
2022/07/19 05:09:29;;;;;;;24.63;17.70;;;;;;;;;;5019927;28;20521;-72
2022/07/19 05:11:56;;;;;;;12.02;7.93;;;;;;;;;;5017313;28;20613;-73
2022/07/19 05:14:22;;;;;;;7.55;4.00;;;;;;;;;;5019942;28;20417;-77
2022/07/19 05:16:49;;;;;;;10.27;4.00;;;;;;;;;;5002698;28;20529;-73
2022/07/19 05:19:16;;;;;;;7.75;3.30;;;;;;;;;;5018018;28;20436;-72
2022/07/19 05:21:42;;;;;;;6.20;3.50;;;;;;;;;;5030107;28;20843;-72
2022/07/19 05:24:08;;;;;;;9.07;4.25;;;;;;;;;;5028851;28;20038;-72
2022/07/19 05:26:35;;;;;;;8.48;3.60;;;20.30;99.90;;;;;;5021707;28;20029;-73
2022/07/19 05:29:02;;;;;;;10.40;3.33;;;20.50;99.90;;;;;;5007045;28;20050;-70
2022/07/19 05:31:29;;;;;;;6.32;3.15;;;;;;;;;;4993292;28;20030;-70
2022/07/19 05:33:55;;;;;;;5.68;3.28;;;;;;;;;;5001591;28;20056;-69
2022/07/19 05:36:20;;;;;;;4.97;3.47;;;20.50;99.90;;;;;;5006832;28;20445;-70
2022/07/19 05:38:46;;;;;;;5.50;3.47;;;20.70;99.90;;;;;;5007925;28;20520;-70
2022/07/19 05:41:12;;;;;;;7.82;3.60;;;;;;;;;;5007640;28;20087;-70
2022/07/19 05:43:39;;;;;;;6.50;3.20;;;;;;;;;;4986275;28;20063;-74
2022/07/19 05:46:05;;;;;;;7.72;4.00;;;;;;;;;;5005552;28;20026;-72
2022/07/19 05:48:32;;;;;;;12.25;3.95;;;;;;;;;;5003518;28;20034;-73
2022/07/19 05:50:58;;;;;;;6.70;2.85;;;21.00;99.90;;;;;;5002391;28;20069;-72
2022/07/19 05:53:25;;;;;;;6.15;3.50;;;;;;;;;;4999642;28;20026;-73
2022/07/19 05:55:51;;;;;;;8.30;3.53;;;;;;;;;;5014214;28;20100;-73
2022/07/19 05:58:17;;;;;;;4.82;3.17;;;21.00;99.90;;;;;;5012426;28;20065;-71
2022/07/19 06:01:17;;;;;;;51.35;35.00;;;;;;;;;;5010223;28;20034;-70
2022/07/19 06:03:30;;;;;;;15.75;4.82;;;;;;;;;;4993311;28;20046;-71
2022/07/19 06:05:56;;;;;;;14.70;8.80;;;;;;;;;;5009686;28;20371;-76
2022/07/19 06:08:22;;;;;;;11.50;4.20;;;;;;;;;;5005970;28;20046;-79
2022/07/19 06:10:48;;;;;;;7.40;3.97;;;;;;;;;;5008876;28;21248;-78
2022/07/19 06:13:14;;;;;;;3.75;3.03;;;;;;;;;;5000449;28;20026;-80
2022/07/19 06:15:42;;;;;;;7.05;3.35;;;;;;;;;;5005701;28;20038;-79
2022/07/19 06:18:09;;;;;;;7.00;3.35;;;21.90;99.90;;;;;;5008137;28;20029;-80
2022/07/19 06:20:35;;;;;;;7.55;3.42;;;;;;;;;;5010726;28;20116;-77
2022/07/19 06:23:01;;;;;;;7.53;3.22;;;;;;;;;;5011725;28;20033;-77
2022/07/19 06:25:27;;;;;;;11.00;2.85;;;;;;;;;;5012352;28;20033;-76
2022/07/19 06:27:53;;;;;;;7.25;3.88;;;;;;;;;;5009883;28;20069;-77
2022/07/19 06:30:19;;;;;;;5.28;3.20;;;;;;;;;;5018704;28;20478;-78
2022/07/19 06:32:45;;;;;;;8.70;3.65;;;;;;;;;;5030615;28;20038;-77
2022/07/19 06:35:11;;;;;;;4.88;3.00;;;;;;;;;;5021329;28;20045;-78
2022/07/19 06:37:37;;;;;;;5.47;3.15;;;;;;;;;;5030414;28;20378;-78
2022/07/19 06:40:04;;;;;;;12.60;7.32;;;;;;;;;;5033085;28;20037;-80
2022/07/19 06:42:30;;;;;;;26.45;18.67;;;;;;;;;;5032336;28;20080;-80
2022/07/19 06:44:56;;;;;;;5.30;3.67;;;;;;;;;;5032016;28;20096;-79
2022/07/19 06:47:21;;;;;;;9.55;4.85;;;25.40;99.90;;;;;;5022316;28;20068;-79
2022/07/19 06:49:47;;;;;;;5.00;3.92;;;;;;;;;;5029671;28;20057;-78
2022/07/19 06:52:14;;;;;;;9.07;3.80;;;;;;;;;;5023221;28;20444;-77
2022/07/19 06:54:41;;;;;;;12.90;3.47;;;;;;;;;;5041681;28;20084;-78
2022/07/19 06:57:08;;;;;;;3.95;2.40;;;;;;;;;;5023192;28;20042;-77
2022/07/19 06:59:34;;;;;;;7.72;2.72;;;;;;;;;;5027152;28;20026;-76
2022/07/19 07:02:00;;;;;;;8.38;2.25;;;24.80;99.90;;;;;;5027991;28;20473;-73
2022/07/19 07:04:26;;;;;;;8.85;2.63;;;;;;;;;;5026190;28;20056;-77
2022/07/19 07:06:52;;;;;;;7.32;2.70;;;;;;;;;;5031201;28;20477;-76
2022/07/19 07:09:18;;;;;;;6.65;2.90;;;;;;;;;;5025504;28;20048;-79
2022/07/19 07:11:43;;;;;;;6.65;2.88;;;25.80;99.90;;;;;;5021612;28;20125;-76
2022/07/19 07:14:09;;;;;;;5.75;2.65;;;26.50;99.90;;;;;;5024753;28;20087;-76
2022/07/19 07:16:35;;;;;;;3.80;2.58;;;;;;;;;;5032980;28;20034;-77
2022/07/19 07:19:01;;;;;;;7.15;2.95;;;;;;;;;;5031772;28;20044;-77
2022/07/19 07:21:27;;;;;;;6.72;2.50;;;;;;;;;;5027284;28;20041;-75
2022/07/19 07:23:53;;;;;;;7.60;2.20;;;;;;;;;;5010343;28;20030;-76
2022/07/19 07:26:19;;;;;;;4.15;2.10;;;;;;;;;;5025232;28;20398;-76
2022/07/19 07:28:45;;;;;;;12.98;10.40;;;;;;;;;;5028827;28;20053;-80
2022/07/19 07:31:10;;;;;;;14.23;6.57;;;30.70;95.20;;;;;;5027757;28;20037;-76
2022/07/19 07:33:36;;;;;;;8.27;2.80;;;;;;;;;;5021362;28;20466;-77
2022/07/19 07:36:03;;;;;;;3.92;2.40;;;;;;;;;;5020435;28;20033;-74
2022/07/19 07:38:28;;;;;;;4.95;2.70;;;31.70;95.20;;;;;;5031094;28;20469;-74
2022/07/19 07:40:55;;;;;;;5.72;2.22;;;;;;;;;;5031473;28;20044;-74
2022/07/19 07:43:22;;;;;;;5.97;2.20;;;32.40;92.70;;;;;;5025775;28;20088;-78
2022/07/19 07:45:48;;;;;;;5.38;2.10;;;32.30;93.40;;;;;;5025021;28;20061;-74
2022/07/19 07:48:14;;;;;;;3.58;2.28;;;;;;;;;;5029879;28;20041;-73
2022/07/19 07:50:40;;;;;;;5.50;1.85;;;33.00;94.60;;;;;;5031859;28;20031;-72
2022/07/19 07:53:06;;;;;;;3.70;2.00;;;;;;;;;;5029252;28;20103;-74
2022/07/19 07:55:38;;;;;;;4.78;2.10;;;;;;;;;;5031342;28;20036;-74
2022/07/19 07:58:04;;;;;;;4.68;1.98;;;33.60;88.70;;;;;;5035542;28;20104;-73
2022/07/19 08:00:30;;;;;;;2.95;1.90;;;33.80;96.00;;;;;;5026687;28;20049;-73
2022/07/19 08:02:56;;;;;;;3.60;1.83;;;;;;;;;;5031413;28;20042;-74
2022/07/19 08:05:22;;;;;;;6.20;1.88;;;;;;;;;;5017745;28;20026;-73
2022/07/19 08:07:48;;;;;;;3.53;1.95;;;;;;;;;;5026223;28;20037;-74
2022/07/19 08:10:14;;;;;;;2.15;1.50;;;;;;;;;;5022072;28;20385;-73
2022/07/19 08:12:40;;;;;;;5.28;2.13;;;34.90;84.70;;;;;;5041964;28;20037;-72
2022/07/19 08:15:07;;;;;;;13.63;2.63;;;;;;;;;;5004502;28;20088;-74
2022/07/19 08:17:33;;;;;;;4.03;1.73;;;35.10;78.30;;;;;;5011977;28;20121;-74
2022/07/19 08:19:59;;;;;;;5.63;1.70;;;35.50;81.80;;;;;;5027234;28;20684;-73
2022/07/19 08:22:25;;;;;;;2.80;1.73;;;35.70;71.80;;;;;;5022749;28;20543;-74
2022/07/19 08:24:52;;;;;;;4.05;1.45;;;;;;;;;;5028228;28;20034;-73
2022/07/19 08:27:19;;;;;;;5.20;2.00;;;;;;;;;;5023063;28;20029;-73
2022/07/19 08:29:45;;;;;;;3.47;1.85;;;36.00;69.00;;;;;;4990404;28;20479;-74
2022/07/19 08:32:11;;;;;;;6.35;1.55;;;;;;;;;;5010948;28;20116;-73
2022/07/19 08:34:37;;;;;;;5.57;1.95;;;;;;;;;;5003913;28;20123;-75
2022/07/19 08:37:03;;;;;;;8.35;1.83;;;;;;;;;;5002272;28;20481;-75
2022/07/19 08:39:30;;;;;;;2.45;1.70;;;;;;;;;;5006926;28;20038;-72
2022/07/19 08:41:56;;;;;;;3.30;1.17;;;;;;;;;;4996272;28;20034;-72
2022/07/19 08:44:22;;;;;;;8.98;1.90;;;36.70;72.20;;;;;;5011016;28;20493;-72
2022/07/19 08:46:48;;;;;;;8.48;1.50;;;;;;;;;;4997533;28;20482;-71
2022/07/19 08:49:15;;;;;;;4.40;1.60;;;;;;;;;;5007816;28;20530;-71
2022/07/19 08:51:42;;;;;;;5.28;1.67;;;37.30;65.00;;;;;;5011003;28;20034;-74
2022/07/19 08:54:08;;;;;;;6.22;1.50;;;;;;;;;;5010770;28;20022;-75
2022/07/19 08:59:18;;;;;;;5.95;1.25;;;37.40;75.60;;;;;;5004313;28;20160;-72
2022/07/19 09:01:43;;;;;;;8.23;1.30;;;37.10;74.10;;;;;;5010110;28;20120;-73
2022/07/19 09:04:17;;;;;;;7.35;1.73;;;;;;;;;;5011671;28;20042;-72
2022/07/19 09:06:45;;;;;;;3.42;1.38;;;;;;;;;;5009741;28;20041;-72
2022/07/19 09:09:14;;;;;;;3.60;1.42;;;37.20;57.40;;;;;;5006261;28;20386;-73
2022/07/19 09:11:51;;;;;;;4.05;1.48;;;37.50;61.80;;;;;;5007881;28;20045;-73
2022/07/19 09:14:39;;;;;;;4.70;1.40;;;37.70;61.90;;;;;;4985332;28;24126;-72
2022/07/19 09:17:06;;;;;;;3.35;1.10;;;;;;;;;;4996887;28;20475;-72
2022/07/19 09:19:33;;;;;;;5.70;1.33;;;;;;;;;;5007486;28;20022;-73
2022/07/19 09:21:59;;;;;;;6.38;1.45;;;;;;;;;;4999432;28;20034;-73
2022/07/19 09:24:26;;;;;;;4.18;1.50;;;38.00;59.60;;;;;;5002658;28;20037;-74
2022/07/19 09:26:55;;;;;;;5.10;1.33;;;38.00;60.00;;;;;;4992038;28;20050;-72
2022/07/19 09:29:21;;;;;;;4.30;1.25;;;38.30;71.60;;;;;;5019711;28;20064;-72
2022/07/19 09:32:12;;;;;;;3.13;1.42;;;38.20;57.40;;;;;;5009879;28;20037;-72
2022/07/19 09:35:01;;;;;;;3.67;1.30;;;;;;;;;;5011484;28;20041;-74
2022/07/19 09:37:29;;;;;;;6.80;1.23;;;38.40;58.50;;;;;;5007262;28;20517;-72
2022/07/19 09:40:01;;;;;;;3.83;1.50;;;38.10;69.80;;;;;;5032964;28;20104;-72
2022/07/19 09:42:41;;;;;;;5.25;1.30;;;38.40;53.20;;;;;;5014784;28;20033;-75
2022/07/19 09:45:07;;;;;;;5.40;0.80;;;;;;;;;;5027706;28;20100;-73
2022/07/19 09:47:35;;;;;;;5.78;1.55;;;;;;;;;;5026670;28;22013;-73
2022/07/19 09:50:07;;;;;;;6.20;1.23;;;38.40;56.10;;;;;;5031785;28;20041;-76
2022/07/19 09:52:36;;;;;;;4.63;1.00;;;;;;;;;;5026981;28;20026;-73
2022/07/19 09:55:07;;;;;;;6.93;1.20;;;38.60;68.80;;;;;;5027169;28;20491;-73
2022/07/19 09:57:36;;;;;;;4.18;1.20;;;38.40;69.20;;;;;;5031516;28;20143;-73
2022/07/19 10:00:04;;;;;;;2.17;1.20;;;38.70;69.00;;;;;;5034094;28;20033;-72
2022/07/19 10:02:35;;;;;;;2.25;1.65;;;38.80;57.10;;;;;;5020211;28;20037;-77
2022/07/19 10:05:02;;;;;;;4.97;1.30;;;;;;;;;;5023087;28;20030;-76
2022/07/19 10:07:28;;;;;;;2.17;1.17;;;;;;;;;;5017667;28;20030;-77
2022/07/19 10:09:55;;;;;;;8.25;1.58;;;;;;;;;;5025628;28;20034;-74
2022/07/19 10:12:22;;;;;;;2.70;1.10;;;38.90;56.10;;;;;;5029698;28;20061;-73
2022/07/19 10:14:48;;;;;;;2.47;1.40;;;;;;;;;;5031152;28;20531;-73
2022/07/19 10:17:36;;;;;;;1.42;1.30;;;38.60;53.40;;;;;;5035269;28;20029;-74
2022/07/19 10:20:05;;;;;;;4.00;1.10;;;38.80;67.00;;;;;;5027384;28;20041;-73
2022/07/19 10:22:32;;;;;;;3.88;1.33;;;39.10;57.50;;;;;;5017707;28;20022;-73
2022/07/19 10:24:59;;;;;;;3.13;1.33;;;;;;;;;;5031095;28;20029;-73
2022/07/19 10:27:24;;;;;;;2.42;1.27;;;39.20;65.90;;;;;;5030640;28;20037;-73
2022/07/19 10:29:56;;;;;;;5.28;1.27;;;39.10;65.00;;;;;;5033834;28;20111;-74
2022/07/19 10:32:29;;;;;;;2.97;1.38;;;39.00;53.10;;;;;;5030243;28;20903;-72
2022/07/19 10:35:22;;;;;;;4.30;1.27;;;39.00;54.30;;;;;;5010746;28;20038;-73
2022/07/19 10:38:10;;;;;;;1.90;1.13;;;39.30;54.10;;;;;;5022826;28;20030;-75
2022/07/19 10:40:59;;;;;;;4.00;1.20;;;39.30;48.90;;;;;;5024455;28;20087;-75
2022/07/19 10:43:25;;;;;;;1.83;1.10;;;39.40;65.10;;;;;;5013469;28;20030;-74
2022/07/19 10:45:56;;;;;;;3.25;1.30;;;39.50;64.90;;;;;;4995894;28;20037;-74
2022/07/19 10:48:45;;;;;;;3.33;1.45;;;39.50;48.90;;;;;;5021075;28;20033;-82
2022/07/19 10:51:26;;;;;;;3.83;1.10;;;39.60;65.10;;;;;;5028304;28;20117;-74
2022/07/19 10:53:56;;;;;;;;;;;39.80;54.60;;;;;;5031221;28;20498;-74
2022/07/19 10:56:30;;;;;;;3.85;1.08;;;39.70;66.30;;;;;;5026975;28;20371;-74
2022/07/19 10:58:58;;;;;;;1.70;1.10;;;39.70;53.80;;;;;;5046895;28;20078;-75
2022/07/19 11:01:28;;;;;;;1.50;1.00;;;39.70;65.10;;;;;;5031447;28;20044;-74
2022/07/19 11:04:14;;;;;;;5.10;1.10;;;39.60;64.80;;;;;;5022107;28;20119;-71
2022/07/19 11:06:40;;;;;;;3.33;1.23;;;;;;;;;;5007860;28;20041;-72
2022/07/19 11:09:06;;;;;;;4.28;1.10;;;;;;;;;;5029735;28;20501;-71
2022/07/19 11:11:32;;;;;;;3.50;0.70;;;;;;;;;;5021947;28;20041;-75
2022/07/19 11:13:58;;;;;;;2.67;1.02;;;39.60;56.10;;;;;;5013854;28;20026;-71
2022/07/19 11:16:25;;;;;;;4.00;0.88;;;39.80;64.40;;;;;;5029837;28;20413;-71
2022/07/19 11:18:52;;;;;;;2.13;0.90;;;;;;;;;;5024782;28;20033;-72
2022/07/19 11:21:18;;;;;;;1.75;1.00;;;;;;;;;;5025072;28;20037;-70
2022/07/19 11:23:44;;;;;;;7.95;0.80;;;39.80;64.40;;;;;;5029881;28;20033;-71
2022/07/19 11:26:14;;;;;;;5.43;1.27;;;39.60;64.20;;;;;;5029878;28;20040;-71
2022/07/19 11:28:41;;;;;;;2.58;0.90;;;;;;;;;;5027877;28;20049;-74
2022/07/19 11:31:14;;;;;;;3.65;1.10;;;39.50;48.80;;;;;;5032577;28;20036;-72
2022/07/19 11:33:40;;;;;;;1.90;0.82;;;39.60;65.10;;;;;;5026506;28;20037;-72
2022/07/19 11:36:06;;;;;;;2.90;0.98;;;39.30;64.80;;;;;;5025850;28;20532;-71
2022/07/19 11:38:44;;;;;;;4.70;0.90;;;39.60;64.90;;;;;;5025257;28;20037;-71
2022/07/19 11:41:18;;;;;;;4.88;1.02;;;39.20;64.90;;;;;;5021617;28;20113;-76
2022/07/19 11:43:53;;;;;;;2.67;1.02;;;39.60;53.90;;;;;;5031487;28;20036;-75
2022/07/19 11:46:22;;;;;;;5.60;1.13;;;39.50;53.30;;;;;;5026424;28;20544;-76
2022/07/19 11:48:48;;;;;;;2.63;1.10;;;;;;;;;;5030142;28;20048;-82
2022/07/19 11:51:14;;;;;;;3.70;1.15;;;;;;;;;;5023839;28;20041;-72
2022/07/19 11:53:40;;;;;;;2.67;1.15;;;39.80;64.40;;;;;;5023223;28;20097;-71
2022/07/19 11:56:29;;;;;;;2.50;0.70;;;39.60;53.70;;;;;;5028839;28;20667;-71
2022/07/19 11:58:57;;;;;;;1.48;0.98;;;39.50;58.00;;;;;;5003819;28;20029;-71
2022/07/19 12:01:44;;;;;;;6.32;1.40;;;;;;;;;;5028428;28;22018;-72
2022/07/19 12:04:12;;;;;;;2.47;1.30;;;39.80;64.90;;;;;;5028330;28;20028;-72
2022/07/19 12:06:43;;;;;;;5.70;1.40;;;39.60;50.60;;;;;;5018613;28;20080;-74
2022/07/19 12:09:11;;;;;;;5.22;1.10;;;39.90;52.90;;;;;;5022342;28;20390;-73
2022/07/19 12:11:45;;;;;;;2.60;1.20;;;39.80;65.00;;;;;;5024125;28;20021;-74
2022/07/19 12:14:19;;;;;;;1.58;0.93;;;;;;;;;;5030180;28;20125;-71
2022/07/19 12:16:46;;;;;;;3.60;0.80;;;39.70;64.60;;;;;;5029963;28;20025;-72
2022/07/19 12:19:14;;;;;;;2.25;1.08;;;39.90;60.20;;;;;;5027255;28;20048;-71
2022/07/19 12:21:41;;;;;;;4.28;0.98;;;39.70;64.20;;;;;;5010421;28;20402;-71
2022/07/19 12:24:14;;;;;;;4.32;1.20;;;;;;;;;;5031975;28;20041;-71
2022/07/19 12:26:46;;;;;;;5.30;1.48;;;;;;;;;;5031080;28;20021;-71
2022/07/19 12:29:28;;;;;;;3.25;1.38;;;39.80;49.20;;;;;;5023679;28;20119;-72
2022/07/19 12:32:08;;;;;;;3.00;1.20;;;39.40;60.00;;;;;;5029437;28;20127;-70
2022/07/19 12:35:01;;;;;;;2.70;1.00;;;;;;;;;;5031370;28;20519;-70
2022/07/19 12:37:30;;;;;;;2.35;0.90;;;;;;;;;;5024245;28;20038;-70
2022/07/19 12:40:19;;;;;;;5.22;1.10;;;39.40;48.00;;;;;;5017074;28;20061;-71
2022/07/19 12:43:03;;;;;;;3.08;1.23;;;39.70;64.80;;;;;;5019503;28;20042;-70
2022/07/19 12:45:41;;;;;;;3.03;1.27;;;;;;;;;;5027796;28;20029;-70
2022/07/19 12:48:08;;;;;;;2.80;1.02;;;;;;;;;;5030216;28;20048;-70
2022/07/19 12:50:38;;;;;;;4.35;1.00;;;;;;;;;;5029171;28;20072;-71
2022/07/19 12:53:08;;;;;;;4.63;0.93;;;39.80;53.20;;;;;;5012876;28;20548;-72
2022/07/19 12:55:35;;;;;;;2.72;0.90;;;40.00;53.40;;;;;;5018174;28;20028;-71
2022/07/19 12:58:02;;;;;;;4.85;1.35;;;40.10;52.50;;;;;;5019567;28;20390;-71
2022/07/19 13:00:29;;;;;;;4.50;1.15;;;40.30;52.70;;;;;;5016421;28;20724;-70
2022/07/19 13:02:56;;;;;;;6.25;1.42;;;39.90;63.80;;;;;;5027570;28;20048;-70
2022/07/19 13:05:23;;;;;;;4.68;1.08;;;40.20;56.00;;;;;;5029819;28;20029;-70
2022/07/19 13:07:49;;;;;;;5.38;1.02;;;40.00;63.80;;;;;;5014291;28;20038;-71
2022/07/19 13:10:15;;;;;;;5.15;0.90;;;40.30;64.00;;;;;;5015686;28;20044;-70
2022/07/19 13:12:41;;;;;;;3.70;1.33;;;40.10;59.30;;;;;;5018113;28;20378;-71
2022/07/19 13:15:08;;;;;;;5.95;1.05;;;40.00;63.90;;;;;;5021821;28;20091;-71
2022/07/19 13:17:34;;;;;;;5.78;1.20;;;;;;;;;;5028929;28;20029;-71
2022/07/19 13:20:00;;;;;;;3.55;1.00;;;39.90;63.20;;;;;;5023444;28;20127;-70
2022/07/19 13:22:26;;;;;;;6.30;1.13;;;40.00;63.10;;;;;;5026049;28;20089;-70
2022/07/19 13:24:52;;;;;;;4.70;0.98;;;39.80;63.00;;;;;;5031003;28;20104;-71
2022/07/19 13:27:18;;;;;;;4.35;1.05;;;;;;;;;;5008330;28;20086;-74
2022/07/19 13:29:44;;;;;;;4.53;0.85;;;;;;;;;;5011196;28;20062;-71
2022/07/19 13:32:11;;;;;;;3.28;1.10;;;40.00;63.40;;;;;;5027487;28;20025;-71
2022/07/19 13:34:40;;;;;;;4.82;0.98;;;39.90;49.20;;;;;;5018786;28;20470;-71
2022/07/19 13:37:06;;;;;;;7.90;0.98;;;40.10;63.20;;;;;;5040620;28;20037;-71
2022/07/19 13:39:33;;;;;;;2.88;1.40;;;;;;;;;;4997181;28;20061;-71
2022/07/19 13:41:59;;;;;;;8.95;1.00;;;;;;;;;;5029207;28;20033;-71
2022/07/19 13:44:26;;;;;;;4.65;0.95;;;;;;;;;;5025389;28;20382;-70
2022/07/19 13:46:51;;;;;;;3.60;1.02;;;40.20;62.40;;;;;;5030156;28;20116;-71
2022/07/19 13:49:17;;;;;;;3.10;0.93;;;;;;;;;;5020670;28;20113;-73
2022/07/19 13:51:45;;;;;;;3.55;0.88;;;;;;;;;;5019648;28;20536;-71
2022/07/19 13:54:10;;;;;;;1.83;0.82;;;40.00;60.00;;;;;;5039041;28;20521;-71
2022/07/19 13:56:36;;;;;;;3.65;0.90;;;40.00;62.40;;;;;;5026340;28;20037;-69
2022/07/19 13:59:02;;;;;;;2.78;0.82;;;;;;;;;;5015766;28;20034;-69
2022/07/19 14:01:30;;;;;;;3.30;0.80;;;40.00;50.50;;;;;;5029353;28;20025;-70
2022/07/19 14:03:56;;;;;;;0.98;0.73;;;39.90;62.40;;;;;;5029514;28;20056;-69